Terminal Aerodrome Forecast
Issued by NWS Binghamton, NY

Home | Current Version | Previous Version | Text Only | Print | Product List | Glossary On
Versions: 1 2 3 4 5 6 7 8 9 10 11 12 13 14 15 16 17 18 19 20
826
FTUS41 KBGM 281726
TAFSYR
TAF
KSYR 281726Z 2818/2918 26008KT P6SM FEW150
     FM290000 VRB03KT P6SM BKN150
      TEMPO 2908/2911 -SHRA BKN060 OVC100
     FM291300 28008KT P6SM OVC060=

USA.gov is the U.S. government's official web portal to all federal, state and local government web resources and services.